sensor_id;sensor_type;location;lat;lon;timestamp;temperature;humidity
33943;DHT22;66763;47.856;17.462;2023-03-22T00:02:20;11.90;50.00
33943;DHT22;66763;47.856;17.462;2023-03-22T00:04:47;11.90;50.00
33943;DHT22;66763;47.856;17.462;2023-03-22T00:07:13;11.90;50.00
33943;DHT22;66763;47.856;17.462;2023-03-22T00:09:38;11.90;50.00
33943;DHT22;66763;47.856;17.462;2023-03-22T00:12:04;11.90;50.00
33943;DHT22;66763;47.856;17.462;2023-03-22T00:14:30;11.90;50.00
33943;DHT22;66763;47.856;17.462;2023-03-22T00:16:55;11.90;50.00
33943;DHT22;66763;47.856;17.462;2023-03-22T00:19:21;11.90;50.00
33943;DHT22;66763;47.856;17.462;2023-03-22T00:21:47;11.90;50.00
33943;DHT22;66763;47.856;17.462;2023-03-22T00:24:12;12.00;50.10
33943;DHT22;66763;47.856;17.462;2023-03-22T00:26:38;12.00;50.10
33943;DHT22;66763;47.856;17.462;2023-03-22T00:29:03;11.90;50.00
33943;DHT22;66763;47.856;17.462;2023-03-22T00:31:29;11.90;50.00
33943;DHT22;66763;47.856;17.462;2023-03-22T00:33:54;11.90;50.00
33943;DHT22;66763;47.856;17.462;2023-03-22T00:36:20;11.90;50.00
33943;DHT22;66763;47.856;17.462;2023-03-22T00:38:45;11.90;50.00
33943;DHT22;66763;47.856;17.462;2023-03-22T00:41:12;11.90;50.00
33943;DHT22;66763;47.856;17.462;2023-03-22T00:43:38;11.90;50.00
33943;DHT22;66763;47.856;17.462;2023-03-22T00:46:04;11.90;50.00
33943;DHT22;66763;47.856;17.462;2023-03-22T00:48:30;11.90;50.00
33943;DHT22;66763;47.856;17.462;2023-03-22T00:50:55;11.90;50.00
33943;DHT22;66763;47.856;17.462;2023-03-22T00:53:21;12.00;50.10
33943;DHT22;66763;47.856;17.462;2023-03-22T00:55:46;12.00;50.10
33943;DHT22;66763;47.856;17.462;2023-03-22T00:58:12;12.00;50.00
33943;DHT22;66763;47.856;17.462;2023-03-22T01:00:37;11.90;50.00
33943;DHT22;66763;47.856;17.462;2023-03-22T01:03:03;11.90;50.00
33943;DHT22;66763;47.856;17.462;2023-03-22T01:05:30;11.90;50.00
33943;DHT22;66763;47.856;17.462;2023-03-22T01:07:55;11.90;50.00
33943;DHT22;66763;47.856;17.462;2023-03-22T01:10:27;12.00;50.10
33943;DHT22;66763;47.856;17.462;2023-03-22T01:12:53;11.90;50.00
33943;DHT22;66763;47.856;17.462;2023-03-22T01:15:20;11.90;50.00
33943;DHT22;66763;47.856;17.462;2023-03-22T01:17:47;11.90;50.00
33943;DHT22;66763;47.856;17.462;2023-03-22T01:20:13;11.90;50.00
33943;DHT22;66763;47.856;17.462;2023-03-22T01:22:38;11.90;50.00
33943;DHT22;66763;47.856;17.462;2023-03-22T01:25:04;12.00;50.10
33943;DHT22;66763;47.856;17.462;2023-03-22T01:27:30;11.90;50.00
33943;DHT22;66763;47.856;17.462;2023-03-22T01:29:55;12.00;50.00
33943;DHT22;66763;47.856;17.462;2023-03-22T01:32:21;11.90;50.00
33943;DHT22;66763;47.856;17.462;2023-03-22T01:34:47;11.90;50.00
33943;DHT22;66763;47.856;17.462;2023-03-22T01:37:12;11.90;50.00
33943;DHT22;66763;47.856;17.462;2023-03-22T01:39:38;12.00;50.00
33943;DHT22;66763;47.856;17.462;2023-03-22T01:42:03;11.90;50.00
33943;DHT22;66763;47.856;17.462;2023-03-22T01:44:29;11.90;50.00
33943;DHT22;66763;47.856;17.462;2023-03-22T01:46:55;11.90;50.00
33943;DHT22;66763;47.856;17.462;2023-03-22T01:51:47;12.00;50.00
33943;DHT22;66763;47.856;17.462;2023-03-22T01:54:15;12.00;50.00
33943;DHT22;66763;47.856;17.462;2023-03-22T01:56:42;11.90;50.00
33943;DHT22;66763;47.856;17.462;2023-03-22T01:59:09;11.90;50.00
33943;DHT22;66763;47.856;17.462;2023-03-22T02:01:36;11.90;50.00
33943;DHT22;66763;47.856;17.462;2023-03-22T02:04:03;12.00;50.00
33943;DHT22;66763;47.856;17.462;2023-03-22T02:06:31;11.90;50.00
33943;DHT22;66763;47.856;17.462;2023-03-22T02:08:57;12.00;50.00
33943;DHT22;66763;47.856;17.462;2023-03-22T02:11:28;11.90;50.00
33943;DHT22;66763;47.856;17.462;2023-03-22T02:22:18;11.90;50.00
33943;DHT22;66763;47.856;17.462;2023-03-22T02:43:40;11.90;50.00
33943;DHT22;66763;47.856;17.462;2023-03-22T02:49:17;11.90;50.10
33943;DHT22;66763;47.856;17.462;2023-03-22T02:52:25;11.90;50.10
33943;DHT22;66763;47.856;17.462;2023-03-22T02:54:41;11.90;50.00
33943;DHT22;66763;47.856;17.462;2023-03-22T02:57:09;11.90;50.00
33943;DHT22;66763;47.856;17.462;2023-03-22T02:59:36;11.90;50.00
33943;DHT22;66763;47.856;17.462;2023-03-22T03:02:02;12.00;50.00
33943;DHT22;66763;47.856;17.462;2023-03-22T03:04:30;11.90;50.00
33943;DHT22;66763;47.856;17.462;2023-03-22T03:06:59;11.90;50.00
33943;DHT22;66763;47.856;17.462;2023-03-22T03:09:26;11.90;50.00
33943;DHT22;66763;47.856;17.462;2023-03-22T03:11:52;11.90;50.00
33943;DHT22;66763;47.856;17.462;2023-03-22T03:19:46;11.90;50.00
33943;DHT22;66763;47.856;17.462;2023-03-22T03:24:49;11.90;50.00
33943;DHT22;66763;47.856;17.462;2023-03-22T03:27:21;11.90;50.00
33943;DHT22;66763;47.856;17.462;2023-03-22T03:34:42;12.00;50.00
33943;DHT22;66763;47.856;17.462;2023-03-22T03:37:11;12.00;50.00
33943;DHT22;66763;47.856;17.462;2023-03-22T03:39:39;11.90;50.00
33943;DHT22;66763;47.856;17.462;2023-03-22T03:42:06;12.00;50.00
33943;DHT22;66763;47.856;17.462;2023-03-22T03:44:35;11.90;50.00
33943;DHT22;66763;47.856;17.462;2023-03-22T03:47:01;12.00;50.00
33943;DHT22;66763;47.856;17.462;2023-03-22T03:49:27;12.00;50.00
33943;DHT22;66763;47.856;17.462;2023-03-22T03:51:53;12.00;50.00
33943;DHT22;66763;47.856;17.462;2023-03-22T03:54:20;12.00;50.00
33943;DHT22;66763;47.856;17.462;2023-03-22T03:56:46;12.00;50.00
33943;DHT22;66763;47.856;17.462;2023-03-22T03:59:15;12.00;50.00
33943;DHT22;66763;47.856;17.462;2023-03-22T04:01:42;12.00;50.00
33943;DHT22;66763;47.856;17.462;2023-03-22T04:04:17;11.90;50.00
33943;DHT22;66763;47.856;17.462;2023-03-22T04:06:57;12.00;50.00
33943;DHT22;66763;47.856;17.462;2023-03-22T04:09:23;12.00;50.10
33943;DHT22;66763;47.856;17.462;2023-03-22T04:11:49;12.00;50.00
33943;DHT22;66763;47.856;17.462;2023-03-22T04:14:14;12.00;50.30
33943;DHT22;66763;47.856;17.462;2023-03-22T04:16:40;12.00;50.10
33943;DHT22;66763;47.856;17.462;2023-03-22T04:19:05;11.90;50.00
33943;DHT22;66763;47.856;17.462;2023-03-22T04:21:31;12.00;50.10
33943;DHT22;66763;47.856;17.462;2023-03-22T04:23:56;11.90;50.10
33943;DHT22;66763;47.856;17.462;2023-03-22T04:26:22;12.00;50.10
33943;DHT22;66763;47.856;17.462;2023-03-22T04:28:47;12.00;50.10
33943;DHT22;66763;47.856;17.462;2023-03-22T04:31:13;12.00;50.10
33943;DHT22;66763;47.856;17.462;2023-03-22T04:33:38;12.00;50.10
33943;DHT22;66763;47.856;17.462;2023-03-22T04:36:05;12.00;50.10
33943;DHT22;66763;47.856;17.462;2023-03-22T04:38:31;12.00;50.00
33943;DHT22;66763;47.856;17.462;2023-03-22T04:40:57;12.00;50.10
33943;DHT22;66763;47.856;17.462;2023-03-22T04:43:22;12.00;50.00
33943;DHT22;66763;47.856;17.462;2023-03-22T04:45:48;12.00;50.10
33943;DHT22;66763;47.856;17.462;2023-03-22T04:48:13;12.00;50.10
33943;DHT22;66763;47.856;17.462;2023-03-22T04:50:39;12.00;50.10
33943;DHT22;66763;47.856;17.462;2023-03-22T04:53:05;12.00;50.10
33943;DHT22;66763;47.856;17.462;2023-03-22T04:55:31;12.00;50.10
33943;DHT22;66763;47.856;17.462;2023-03-22T04:57:58;12.00;50.10
33943;DHT22;66763;47.856;17.462;2023-03-22T05:00:24;12.00;50.10
33943;DHT22;66763;47.856;17.462;2023-03-22T05:02:49;12.00;50.10
33943;DHT22;66763;47.856;17.462;2023-03-22T05:05:15;12.00;50.10
33943;DHT22;66763;47.856;17.462;2023-03-22T05:07:40;12.00;50.10
33943;DHT22;66763;47.856;17.462;2023-03-22T05:10:06;12.00;50.10
33943;DHT22;66763;47.856;17.462;2023-03-22T05:12:32;11.90;50.00
33943;DHT22;66763;47.856;17.462;2023-03-22T05:14:57;12.00;50.10
33943;DHT22;66763;47.856;17.462;2023-03-22T05:17:25;12.00;50.10
33943;DHT22;66763;47.856;17.462;2023-03-22T05:19:50;12.00;50.10
33943;DHT22;66763;47.856;17.462;2023-03-22T05:22:16;12.00;50.10
33943;DHT22;66763;47.856;17.462;2023-03-22T05:24:43;12.00;50.10
33943;DHT22;66763;47.856;17.462;2023-03-22T05:27:09;12.00;50.10
33943;DHT22;66763;47.856;17.462;2023-03-22T05:29:35;12.00;50.10
33943;DHT22;66763;47.856;17.462;2023-03-22T05:32:04;12.00;50.10
33943;DHT22;66763;47.856;17.462;2023-03-22T05:34:29;12.00;50.10
33943;DHT22;66763;47.856;17.462;2023-03-22T05:37:00;12.00;50.20
33943;DHT22;66763;47.856;17.462;2023-03-22T05:39:25;12.00;50.10
33943;DHT22;66763;47.856;17.462;2023-03-22T05:41:51;12.00;50.10
33943;DHT22;66763;47.856;17.462;2023-03-22T05:44:16;12.00;50.10
33943;DHT22;66763;47.856;17.462;2023-03-22T05:46:42;12.00;50.20
33943;DHT22;66763;47.856;17.462;2023-03-22T05:49:07;12.00;50.10
33943;DHT22;66763;47.856;17.462;2023-03-22T05:51:33;12.00;50.10
33943;DHT22;66763;47.856;17.462;2023-03-22T05:54:06;12.00;50.10
33943;DHT22;66763;47.856;17.462;2023-03-22T05:56:31;12.00;50.10
33943;DHT22;66763;47.856;17.462;2023-03-22T05:58:57;12.00;50.20
33943;DHT22;66763;47.856;17.462;2023-03-22T06:01:23;12.00;50.20
33943;DHT22;66763;47.856;17.462;2023-03-22T06:03:49;12.00;50.20
33943;DHT22;66763;47.856;17.462;2023-03-22T06:06:15;12.00;50.20
33943;DHT22;66763;47.856;17.462;2023-03-22T06:08:41;12.00;50.10
33943;DHT22;66763;47.856;17.462;2023-03-22T06:11:07;12.00;50.20
33943;DHT22;66763;47.856;17.462;2023-03-22T06:13:32;12.00;50.20
33943;DHT22;66763;47.856;17.462;2023-03-22T06:15:58;12.00;50.10
33943;DHT22;66763;47.856;17.462;2023-03-22T06:18:24;12.00;50.10
33943;DHT22;66763;47.856;17.462;2023-03-22T06:20:50;12.00;50.20
33943;DHT22;66763;47.856;17.462;2023-03-22T06:23:15;12.00;50.20
33943;DHT22;66763;47.856;17.462;2023-03-22T06:25:41;12.00;50.10
33943;DHT22;66763;47.856;17.462;2023-03-22T06:28:06;12.00;50.10
33943;DHT22;66763;47.856;17.462;2023-03-22T06:30:32;12.00;50.20
33943;DHT22;66763;47.856;17.462;2023-03-22T06:32:57;12.00;50.20
33943;DHT22;66763;47.856;17.462;2023-03-22T06:35:25;12.00;50.20
33943;DHT22;66763;47.856;17.462;2023-03-22T06:37:51;12.00;50.20
33943;DHT22;66763;47.856;17.462;2023-03-22T06:40:16;12.00;50.20
33943;DHT22;66763;47.856;17.462;2023-03-22T06:42:42;11.90;50.10
33943;DHT22;66763;47.856;17.462;2023-03-22T06:45:07;12.00;50.20
33943;DHT22;66763;47.856;17.462;2023-03-22T06:47:33;12.00;50.20
33943;DHT22;66763;47.856;17.462;2023-03-22T06:49:58;12.00;50.20
33943;DHT22;66763;47.856;17.462;2023-03-22T06:52:24;12.00;50.20
33943;DHT22;66763;47.856;17.462;2023-03-22T06:54:49;11.90;50.10
33943;DHT22;66763;47.856;17.462;2023-03-22T06:57:15;12.00;50.20
33943;DHT22;66763;47.856;17.462;2023-03-22T06:59:40;12.00;50.20
33943;DHT22;66763;47.856;17.462;2023-03-22T07:02:08;12.00;50.10
33943;DHT22;66763;47.856;17.462;2023-03-22T07:04:34;12.00;50.20
33943;DHT22;66763;47.856;17.462;2023-03-22T07:07:00;12.00;50.20
33943;DHT22;66763;47.856;17.462;2023-03-22T07:09:25;12.00;50.20
33943;DHT22;66763;47.856;17.462;2023-03-22T07:11:51;12.00;50.20
33943;DHT22;66763;47.856;17.462;2023-03-22T07:14:17;12.00;50.10
33943;DHT22;66763;47.856;17.462;2023-03-22T07:16:42;12.00;50.20
33943;DHT22;66763;47.856;17.462;2023-03-22T07:19:08;12.00;50.20
33943;DHT22;66763;47.856;17.462;2023-03-22T07:21:33;12.00;50.20
33943;DHT22;66763;47.856;17.462;2023-03-22T07:23:59;12.00;50.20
33943;DHT22;66763;47.856;17.462;2023-03-22T07:26:24;12.00;50.10
33943;DHT22;66763;47.856;17.462;2023-03-22T07:28:51;12.00;50.20
33943;DHT22;66763;47.856;17.462;2023-03-22T07:31:16;12.00;50.80
33943;DHT22;66763;47.856;17.462;2023-03-22T07:33:42;12.00;50.20
33943;DHT22;66763;47.856;17.462;2023-03-22T07:36:08;12.00;50.20
33943;DHT22;66763;47.856;17.462;2023-03-22T07:38:34;12.00;50.20
33943;DHT22;66763;47.856;17.462;2023-03-22T07:40:59;12.00;50.20
33943;DHT22;66763;47.856;17.462;2023-03-22T07:43:25;12.00;50.20
33943;DHT22;66763;47.856;17.462;2023-03-22T07:45:50;12.00;50.10
33943;DHT22;66763;47.856;17.462;2023-03-22T07:48:19;12.00;50.20
33943;DHT22;66763;47.856;17.462;2023-03-22T07:50:45;12.00;50.20
33943;DHT22;66763;47.856;17.462;2023-03-22T07:53:10;12.00;50.20
33943;DHT22;66763;47.856;17.462;2023-03-22T07:55:36;12.00;50.20
33943;DHT22;66763;47.856;17.462;2023-03-22T07:58:02;12.00;50.20
33943;DHT22;66763;47.856;17.462;2023-03-22T08:00:28;12.00;50.20
33943;DHT22;66763;47.856;17.462;2023-03-22T08:02:53;12.00;50.20
33943;DHT22;66763;47.856;17.462;2023-03-22T08:05:19;12.00;50.20
33943;DHT22;66763;47.856;17.462;2023-03-22T08:07:44;12.00;50.20
33943;DHT22;66763;47.856;17.462;2023-03-22T08:10:10;12.00;50.20
33943;DHT22;66763;47.856;17.462;2023-03-22T08:12:36;12.00;50.20
33943;DHT22;66763;47.856;17.462;2023-03-22T08:15:01;12.00;50.20
33943;DHT22;66763;47.856;17.462;2023-03-22T08:17:27;12.00;50.20
33943;DHT22;66763;47.856;17.462;2023-03-22T08:19:54;12.00;50.20
33943;DHT22;66763;47.856;17.462;2023-03-22T08:22:20;12.00;50.30
33943;DHT22;66763;47.856;17.462;2023-03-22T08:24:49;11.90;50.30
33943;DHT22;66763;47.856;17.462;2023-03-22T08:27:15;12.00;50.30
33943;DHT22;66763;47.856;17.462;2023-03-22T08:29:41;12.00;50.30
33943;DHT22;66763;47.856;17.462;2023-03-22T08:32:07;12.00;50.30
33943;DHT22;66763;47.856;17.462;2023-03-22T08:34:35;12.00;50.30
33943;DHT22;66763;47.856;17.462;2023-03-22T08:37:02;12.00;50.30
33943;DHT22;66763;47.856;17.462;2023-03-22T08:39:28;12.00;50.30
33943;DHT22;66763;47.856;17.462;2023-03-22T08:41:53;12.00;50.30
33943;DHT22;66763;47.856;17.462;2023-03-22T08:44:18;12.00;50.30
33943;DHT22;66763;47.856;17.462;2023-03-22T08:46:44;12.00;50.40
33943;DHT22;66763;47.856;17.462;2023-03-22T08:49:09;12.00;50.40
33943;DHT22;66763;47.856;17.462;2023-03-22T08:51:35;12.00;50.40
33943;DHT22;66763;47.856;17.462;2023-03-22T08:54:01;12.00;50.40
33943;DHT22;66763;47.856;17.462;2023-03-22T08:56:28;12.00;50.40
33943;DHT22;66763;47.856;17.462;2023-03-22T08:58:54;12.00;50.40
33943;DHT22;66763;47.856;17.462;2023-03-22T09:01:19;12.00;51.00
33943;DHT22;66763;47.856;17.462;2023-03-22T09:03:45;12.00;50.40
33943;DHT22;66763;47.856;17.462;2023-03-22T09:06:11;12.00;50.40
33943;DHT22;66763;47.856;17.462;2023-03-22T09:08:37;12.00;50.40
33943;DHT22;66763;47.856;17.462;2023-03-22T09:11:03;12.00;50.40
33943;DHT22;66763;47.856;17.462;2023-03-22T09:13:29;12.00;50.40
33943;DHT22;66763;47.856;17.462;2023-03-22T09:15:58;12.00;50.40
33943;DHT22;66763;47.856;17.462;2023-03-22T09:18:24;12.00;50.40
33943;DHT22;66763;47.856;17.462;2023-03-22T09:20:50;12.00;50.40
33943;DHT22;66763;47.856;17.462;2023-03-22T09:23:16;12.00;50.40
33943;DHT22;66763;47.856;17.462;2023-03-22T09:25:42;12.00;50.40
33943;DHT22;66763;47.856;17.462;2023-03-22T09:28:07;12.00;50.30
33943;DHT22;66763;47.856;17.462;2023-03-22T09:30:33;12.00;50.40
33943;DHT22;66763;47.856;17.462;2023-03-22T09:32:58;12.00;50.30
33943;DHT22;66763;47.856;17.462;2023-03-22T09:35:24;12.10;50.40
33943;DHT22;66763;47.856;17.462;2023-03-22T09:37:50;12.00;50.30
33943;DHT22;66763;47.856;17.462;2023-03-22T09:40:17;12.00;50.40
33943;DHT22;66763;47.856;17.462;2023-03-22T09:42:50;12.00;50.40
33943;DHT22;66763;47.856;17.462;2023-03-22T09:45:21;12.10;50.40
33943;DHT22;66763;47.856;17.462;2023-03-22T09:47:50;12.00;50.40
33943;DHT22;66763;47.856;17.462;2023-03-22T09:50:34;12.10;50.50
33943;DHT22;66763;47.856;17.462;2023-03-22T09:53:02;12.00;50.40
33943;DHT22;66763;47.856;17.462;2023-03-22T09:58:00;12.00;50.40
33943;DHT22;66763;47.856;17.462;2023-03-22T10:00:32;12.00;50.40
33943;DHT22;66763;47.856;17.462;2023-03-22T10:03:06;12.00;50.50
33943;DHT22;66763;47.856;17.462;2023-03-22T10:05:42;12.00;50.40
33943;DHT22;66763;47.856;17.462;2023-03-22T10:08:18;12.10;50.50
33943;DHT22;66763;47.856;17.462;2023-03-22T10:10:46;12.00;50.50
33943;DHT22;66763;47.856;17.462;2023-03-22T10:13:15;12.00;50.40
33943;DHT22;66763;47.856;17.462;2023-03-22T10:15:43;12.00;50.50
33943;DHT22;66763;47.856;17.462;2023-03-22T10:18:15;12.00;50.50
33943;DHT22;66763;47.856;17.462;2023-03-22T10:20:47;12.10;50.60
33943;DHT22;66763;47.856;17.462;2023-03-22T10:23:15;12.10;50.50
33943;DHT22;66763;47.856;17.462;2023-03-22T10:25:42;12.10;50.50
33943;DHT22;66763;47.856;17.462;2023-03-22T10:28:18;12.00;50.50
33943;DHT22;66763;47.856;17.462;2023-03-22T10:30:46;12.10;50.50
33943;DHT22;66763;47.856;17.462;2023-03-22T10:33:18;12.10;50.50
33943;DHT22;66763;47.856;17.462;2023-03-22T10:35:45;12.10;50.50
33943;DHT22;66763;47.856;17.462;2023-03-22T10:38:16;12.00;50.50
33943;DHT22;66763;47.856;17.462;2023-03-22T10:40:42;12.10;50.50
33943;DHT22;66763;47.856;17.462;2023-03-22T10:43:22;12.10;50.50
33943;DHT22;66763;47.856;17.462;2023-03-22T10:45:51;12.10;50.60
33943;DHT22;66763;47.856;17.462;2023-03-22T10:48:26;12.10;50.50
33943;DHT22;66763;47.856;17.462;2023-03-22T10:50:53;12.00;50.50
33943;DHT22;66763;47.856;17.462;2023-03-22T10:55:50;12.10;50.60
33943;DHT22;66763;47.856;17.462;2023-03-22T10:58:17;12.10;50.50
33943;DHT22;66763;47.856;17.462;2023-03-22T11:00:44;12.00;50.50
33943;DHT22;66763;47.856;17.462;2023-03-22T11:03:15;12.10;50.60
33943;DHT22;66763;47.856;17.462;2023-03-22T11:05:50;12.10;50.50
33943;DHT22;66763;47.856;17.462;2023-03-22T11:08:21;12.10;50.50
33943;DHT22;66763;47.856;17.462;2023-03-22T11:10:50;12.10;50.50
33943;DHT22;66763;47.856;17.462;2023-03-22T11:13:18;12.10;50.50
33943;DHT22;66763;47.856;17.462;2023-03-22T11:15:59;12.10;50.50
33943;DHT22;66763;47.856;17.462;2023-03-22T11:18:28;12.10;50.50
33943;DHT22;66763;47.856;17.462;2023-03-22T11:20:56;12.10;50.50
33943;DHT22;66763;47.856;17.462;2023-03-22T11:23:23;12.10;50.40
33943;DHT22;66763;47.856;17.462;2023-03-22T11:25:49;12.10;50.50
33943;DHT22;66763;47.856;17.462;2023-03-22T11:28:17;12.10;50.50
33943;DHT22;66763;47.856;17.462;2023-03-22T11:33:53;12.10;50.40
33943;DHT22;66763;47.856;17.462;2023-03-22T11:36:19;12.10;50.50
33943;DHT22;66763;47.856;17.462;2023-03-22T11:38:44;12.10;50.50
33943;DHT22;66763;47.856;17.462;2023-03-22T11:41:34;12.10;50.50
33943;DHT22;66763;47.856;17.462;2023-03-22T11:44:00;12.10;50.50
33943;DHT22;66763;47.856;17.462;2023-03-22T11:46:27;12.10;50.50
33943;DHT22;66763;47.856;17.462;2023-03-22T11:48:56;12.10;50.50
33943;DHT22;66763;47.856;17.462;2023-03-22T11:51:26;12.10;50.50
33943;DHT22;66763;47.856;17.462;2023-03-22T11:53:54;12.10;50.50
33943;DHT22;66763;47.856;17.462;2023-03-22T11:56:20;12.10;50.50
33943;DHT22;66763;47.856;17.462;2023-03-22T11:58:54;12.10;50.50
33943;DHT22;66763;47.856;17.462;2023-03-22T12:01:30;12.20;50.50
33943;DHT22;66763;47.856;17.462;2023-03-22T12:03:57;12.10;50.50
33943;DHT22;66763;47.856;17.462;2023-03-22T12:06:24;12.10;51.10
33943;DHT22;66763;47.856;17.462;2023-03-22T12:08:55;12.10;50.50
33943;DHT22;66763;47.856;17.462;2023-03-22T12:14:01;12.10;50.60
33943;DHT22;66763;47.856;17.462;2023-03-22T12:16:28;12.10;50.50
33943;DHT22;66763;47.856;17.462;2023-03-22T12:19:02;12.10;50.50
33943;DHT22;66763;47.856;17.462;2023-03-22T12:21:30;12.10;50.40
33943;DHT22;66763;47.856;17.462;2023-03-22T12:23:57;12.10;50.50
33943;DHT22;66763;47.856;17.462;2023-03-22T12:26:24;12.10;50.50
33943;DHT22;66763;47.856;17.462;2023-03-22T12:31:20;12.10;50.50
33943;DHT22;66763;47.856;17.462;2023-03-22T12:33:47;12.10;50.50
33943;DHT22;66763;47.856;17.462;2023-03-22T12:36:22;12.10;50.50
33943;DHT22;66763;47.856;17.462;2023-03-22T12:38:53;12.20;50.50
33943;DHT22;66763;47.856;17.462;2023-03-22T12:41:37;12.10;50.40
33943;DHT22;66763;47.856;17.462;2023-03-22T12:44:08;12.10;50.50
33943;DHT22;66763;47.856;17.462;2023-03-22T12:46:39;12.10;50.50
33943;DHT22;66763;47.856;17.462;2023-03-22T12:49:13;12.10;50.50
33943;DHT22;66763;47.856;17.462;2023-03-22T12:51:40;12.10;50.50
33943;DHT22;66763;47.856;17.462;2023-03-22T12:54:08;12.10;50.50
33943;DHT22;66763;47.856;17.462;2023-03-22T12:56:37;12.10;50.50
33943;DHT22;66763;47.856;17.462;2023-03-22T12:59:04;12.10;50.50
33943;DHT22;66763;47.856;17.462;2023-03-22T13:01:52;12.10;50.50
33943;DHT22;66763;47.856;17.462;2023-03-22T13:04:30;12.10;50.50
33943;DHT22;66763;47.856;17.462;2023-03-22T13:07:06;12.10;50.50
33943;DHT22;66763;47.856;17.462;2023-03-22T13:09:36;12.10;50.50
33943;DHT22;66763;47.856;17.462;2023-03-22T13:17:31;12.10;50.50
33943;DHT22;66763;47.856;17.462;2023-03-22T13:19:59;12.10;50.50
33943;DHT22;66763;47.856;17.462;2023-03-22T13:35:42;12.10;50.50
33943;DHT22;66763;47.856;17.462;2023-03-22T13:38:13;12.10;50.50
33943;DHT22;66763;47.856;17.462;2023-03-22T13:40:46;12.10;50.50
33943;DHT22;66763;47.856;17.462;2023-03-22T13:43:23;12.10;50.50
33943;DHT22;66763;47.856;17.462;2023-03-22T13:51:26;12.20;50.60
33943;DHT22;66763;47.856;17.462;2023-03-22T13:54:09;12.10;50.50
33943;DHT22;66763;47.856;17.462;2023-03-22T14:01:40;12.20;50.60
33943;DHT22;66763;47.856;17.462;2023-03-22T14:04:15;12.10;50.50
33943;DHT22;66763;47.856;17.462;2023-03-22T14:06:49;12.20;50.60
33943;DHT22;66763;47.856;17.462;2023-03-22T14:09:24;12.20;50.60
33943;DHT22;66763;47.856;17.462;2023-03-22T14:11:52;12.20;50.60
33943;DHT22;66763;47.856;17.462;2023-03-22T14:14:19;12.20;50.60
33943;DHT22;66763;47.856;17.462;2023-03-22T14:17:30;12.20;50.60
33943;DHT22;66763;47.856;17.462;2023-03-22T14:19:36;12.20;50.60
33943;DHT22;66763;47.856;17.462;2023-03-22T14:22:03;12.20;50.60
33943;DHT22;66763;47.856;17.462;2023-03-22T14:24:30;12.20;50.60
33943;DHT22;66763;47.856;17.462;2023-03-22T14:26:59;12.20;50.60
33943;DHT22;66763;47.856;17.462;2023-03-22T14:29:26;12.20;50.60
33943;DHT22;66763;47.856;17.462;2023-03-22T14:31:58;12.20;50.60
33943;DHT22;66763;47.856;17.462;2023-03-22T14:34:25;12.20;50.60
33943;DHT22;66763;47.856;17.462;2023-03-22T14:36:56;12.20;50.60
33943;DHT22;66763;47.856;17.462;2023-03-22T14:39:27;12.20;50.60
33943;DHT22;66763;47.856;17.462;2023-03-22T14:42:07;12.20;50.60
33943;DHT22;66763;47.856;17.462;2023-03-22T14:44:40;12.20;50.60
33943;DHT22;66763;47.856;17.462;2023-03-22T14:47:11;12.20;50.60
33943;DHT22;66763;47.856;17.462;2023-03-22T14:49:37;12.20;50.60
33943;DHT22;66763;47.856;17.462;2023-03-22T14:52:03;12.20;50.60
33943;DHT22;66763;47.856;17.462;2023-03-22T14:54:28;12.20;50.60
33943;DHT22;66763;47.856;17.462;2023-03-22T14:56:57;12.20;50.60
33943;DHT22;66763;47.856;17.462;2023-03-22T14:59:23;12.20;50.60
33943;DHT22;66763;47.856;17.462;2023-03-22T15:01:52;12.20;50.60
33943;DHT22;66763;47.856;17.462;2023-03-22T15:04:20;12.20;50.60
33943;DHT22;66763;47.856;17.462;2023-03-22T15:07:04;12.20;50.60
33943;DHT22;66763;47.856;17.462;2023-03-22T15:09:29;12.20;50.60
33943;DHT22;66763;47.856;17.462;2023-03-22T15:11:59;12.20;50.50
33943;DHT22;66763;47.856;17.462;2023-03-22T15:14:28;12.20;50.60
33943;DHT22;66763;47.856;17.462;2023-03-22T15:16:58;12.20;50.50
33943;DHT22;66763;47.856;17.462;2023-03-22T15:19:24;12.20;50.60
33943;DHT22;66763;47.856;17.462;2023-03-22T15:22:12;12.20;50.60
33943;DHT22;66763;47.856;17.462;2023-03-22T15:24:39;12.20;50.60
33943;DHT22;66763;47.856;17.462;2023-03-22T15:27:09;12.20;50.50
33943;DHT22;66763;47.856;17.462;2023-03-22T15:29:39;12.20;50.60
33943;DHT22;66763;47.856;17.462;2023-03-22T15:32:08;12.20;50.60
33943;DHT22;66763;47.856;17.462;2023-03-22T15:34:37;12.20;50.60
33943;DHT22;66763;47.856;17.462;2023-03-22T15:37:02;12.20;50.60
33943;DHT22;66763;47.856;17.462;2023-03-22T15:39:35;12.20;50.60
33943;DHT22;66763;47.856;17.462;2023-03-22T15:42:20;12.20;50.60
33943;DHT22;66763;47.856;17.462;2023-03-22T15:44:59;12.20;50.60
33943;DHT22;66763;47.856;17.462;2023-03-22T15:47:25;12.20;50.60
33943;DHT22;66763;47.856;17.462;2023-03-22T15:49:53;12.20;50.60
33943;DHT22;66763;47.856;17.462;2023-03-22T15:52:21;12.20;50.60
33943;DHT22;66763;47.856;17.462;2023-03-22T15:57:20;12.20;50.70
33943;DHT22;66763;47.856;17.462;2023-03-22T15:59:48;12.20;50.60
33943;DHT22;66763;47.856;17.462;2023-03-22T16:04:51;12.20;50.60
33943;DHT22;66763;47.856;17.462;2023-03-22T16:07:23;12.20;50.60
33943;DHT22;66763;47.856;17.462;2023-03-22T16:09:49;12.20;50.60
33943;DHT22;66763;47.856;17.462;2023-03-22T16:12:16;12.20;50.60
33943;DHT22;66763;47.856;17.462;2023-03-22T16:14:42;12.20;50.60
33943;DHT22;66763;47.856;17.462;2023-03-22T16:17:15;12.20;50.60
33943;DHT22;66763;47.856;17.462;2023-03-22T16:19:41;12.20;50.60
33943;DHT22;66763;47.856;17.462;2023-03-22T16:22:10;12.20;50.60
33943;DHT22;66763;47.856;17.462;2023-03-22T16:24:37;12.20;50.60
33943;DHT22;66763;47.856;17.462;2023-03-22T16:27:08;12.20;50.60
33943;DHT22;66763;47.856;17.462;2023-03-22T16:29:34;12.20;50.60
33943;DHT22;66763;47.856;17.462;2023-03-22T16:32:00;12.20;50.60
33943;DHT22;66763;47.856;17.462;2023-03-22T16:34:25;12.20;50.60
33943;DHT22;66763;47.856;17.462;2023-03-22T16:36:51;12.20;50.60
33943;DHT22;66763;47.856;17.462;2023-03-22T16:39:16;12.20;51.20
33943;DHT22;66763;47.856;17.462;2023-03-22T16:41:42;12.30;50.70
33943;DHT22;66763;47.856;17.462;2023-03-22T16:44:09;12.20;50.60
33943;DHT22;66763;47.856;17.462;2023-03-22T16:46:37;12.20;50.60
33943;DHT22;66763;47.856;17.462;2023-03-22T16:49:02;12.20;50.60
33943;DHT22;66763;47.856;17.462;2023-03-22T16:51:28;12.20;50.60
33943;DHT22;66763;47.856;17.462;2023-03-22T16:53:54;12.30;50.60